Details From LEBB - Bilbao
To LESO - San_Sebastian
Flight Number -
Tags generated
Created
Modified
Stats Distance 51 nm / 94 km
Max Altitude 600 ft / 183 m
Waypoints 3
Social Downloads 7
Likes 0
Share VATSIM

Download

Looking for another format? Having issues loading an existing format? Contact us
Advertisement - Login to hide

Notes

Basic altitude profile: - Ascent Rate: 2500ft/min - Ascent Speed: 250kts - Cruise Altitude: 35000ft - Cruise Speed: 420kts - Descent Rate: 1500ft/min - Descent Speed: 250kts Options: - Use NATs: yes - Use PACOTS: yes - Use low airways: yes - Use high airways: yes

Route

LEBB SSN LESO

ID Type Via Altitude Latitude Longitude Leg Dist Tot Dist Heading (true) Name
O LEBB APT - 0 ft / 0 m 43.30169˚ -2.91766˚ - 0 nm - Bilbao
SSN VOR - 600 ft / 183 m 43.31120˚ -1.83039˚ 47 nm 47 nm 89° / 90° SAN SEBASTIAN VOR-DME
O LESO APT - 0 ft / 0 m 43.35652˚ -1.79061˚ 3 nm 50 nm 33° / 33° San_Sebastian

Altitude Profile

Advertisement - Login to hide

LEBB

Details ICAO LEBB (BIO)
Name Bilbao
Region Spain
Timezone Europe/Madrid (UTC+2.0)
Stats Elevation 137 ft / 42 m (AMSL)
Location 43.301692° -2.917664°
Runways 2
Magnetic Variation 0.574° W

METAR

LEBB 230800Z VRB01KT CAVOK 18/14 Q1018 NOSIG

Decode

TAF

TAF LEBB 230500Z 2306/2406 VRB05KT CAVOK TX23/2314Z TN10/2306Z PROB40 TEMPO 2306/2308 3000 BR PROB40 TEMPO 2312/2318 04008KT PROB30 TEMPO 2308/2324 3000 SHRA BKN010 SCT020TCU

Decode

Departure Runways

ID Width Length Bearing (true) Bearing (mag) Surface Threshold Offset Overrun Length
10 148 ft / 45 m 6,569 ft / 2,002 m 96.66° 97.23° Asphalt 20 ft / 6 m 184 ft / 56 m
12 148 ft / 45 m 8,539 ft / 2,603 m 116.73° 117.30° Asphalt 20 ft / 6 m 197 ft / 60 m
28 148 ft / 45 m 6,569 ft / 2,002 m 276.68° 277.25° Asphalt 23 ft / 7 m 0 ft / 0 m
30 148 ft / 45 m 8,539 ft / 2,603 m 296.75° 297.32° Asphalt 1,509 ft / 460 m 171 ft / 52 m

LESO

Details ICAO LESO (EAS)
Name San_Sebastian
Region Spain
Timezone Europe/Madrid (UTC+2.0)
Stats Elevation 14 ft / 4 m (AMSL)
Location 43.356520° -1.790611°
Runways 1
Magnetic Variation 0.243° W

METAR

LESO 230800Z 00000KT 9999 FEW012 18/14 Q1018

Decode

TAF

TAF LESO 230500Z 2306/2406 24005KT CAVOK TX21/2314Z TN13/2306Z PROB40 TEMPO 2306/2307 3000 BR PROB30 TEMPO 2312/2318 02010KT

Decode

Destination Runways

ID Width Length Bearing (true) Bearing (mag) Surface Threshold Offset Overrun Length
04 148 ft / 45 m 5,762 ft / 1,756 m 38.68° 38.92° Asphalt 0 ft / 0 m 0 ft / 0 m
22 148 ft / 45 m 5,762 ft / 1,756 m 218.69° 218.93° Asphalt 0 ft / 0 m 0 ft / 0 m

Popular Alternatives